Time;durP1;ratioP1;P1;durP2;ratioP2;P2;SDS_P1;SDS_P2;PMS_P1;PMS_P2;Temp;Humidity;BMP_temperature;BMP_pressure;BME280_temperature;BME280_humidity;BME280_pressure;Samples;Min_cycle;Max_cycle;Signal;HPM_P1;HPM_P2
2022/09/15 00:00:56;;;;;;;7.20;4.03;;;;;;;20.04;nan;99764.78;5045193;28;20033;-75
2022/09/15 00:03:22;;;;;;;12.32;4.70;;;;;;;20.07;nan;99773.00;5030054;28;20021;-75
2022/09/15 00:05:49;;;;;;;8.77;4.45;;;;;;;20.09;nan;99754.00;5046905;28;20013;-74
2022/09/15 00:08:15;;;;;;;6.88;4.00;;;;;;;20.07;nan;99716.09;5044267;28;20016;-74
2022/09/15 00:10:53;;;;;;;8.35;4.07;;;;;;;20.11;nan;99773.97;5042974;28;20044;-75
2022/09/15 00:13:20;;;;;;;6.97;4.00;;;;;;;20.12;nan;99759.50;5046490;28;20037;-75
2022/09/15 00:15:46;;;;;;;19.10;4.18;;;;;;;20.14;nan;99764.56;5046224;28;20055;-65
2022/09/15 00:18:12;;;;;;;7.63;4.20;;;;;;;;;;5047264;28;20170;-65
2022/09/15 00:20:44;;;;;;;11.48;4.20;;;;;;;20.17;nan;99796.81;5045493;28;20028;-67
2022/09/15 00:23:12;;;;;;;9.80;4.22;;;;;;;20.21;nan;99737.38;5044411;28;20415;-66
2022/09/15 00:25:49;;;;;;;9.27;4.35;;;;;;;20.14;nan;99708.44;5043938;28;20028;-66
2022/09/15 00:28:16;;;;;;;7.85;3.83;;;;;;;20.23;nan;99756.56;5050179;28;20029;-66
2022/09/15 00:30:44;;;;;;;9.55;4.40;;;;;;;20.24;nan;99768.88;5047484;28;20016;-66
2022/09/15 00:33:11;;;;;;;7.47;4.13;;;;;;;20.26;nan;99750.66;5053565;28;20059;-66
2022/09/15 00:35:41;;;;;;;9.13;4.47;;;;;;;20.22;nan;99752.34;5060721;28;20037;-65
2022/09/15 00:38:09;;;;;;;7.72;3.95;;;;;;;20.27;nan;99762.91;5060945;28;20017;-64
2022/09/15 00:40:43;;;;;;;6.38;3.60;;;;;;;20.27;nan;99722.78;5062364;28;20013;-65
2022/09/15 00:43:10;;;;;;;8.13;3.78;;;;;;;20.26;nan;99743.41;5057473;28;20033;-66
2022/09/15 00:45:36;;;;;;;8.48;4.10;;;;;;;20.21;nan;99726.69;5058411;28;20017;-66
2022/09/15 00:48:03;;;;;;;7.05;3.72;;;;;;;;;;5043032;28;20607;-65
2022/09/15 00:50:31;;;;;;;10.63;4.20;;;;;;;20.21;nan;99730.16;5060725;28;20060;-65
2022/09/15 00:53:01;;;;;;;7.50;3.88;;;;;;;20.18;nan;99734.25;5050738;28;20025;-66
2022/09/15 00:55:47;;;;;;;10.43;4.10;;;;;;;20.16;nan;99787.22;5047262;28;20060;-66
2022/09/15 00:58:36;;;;;;;7.10;3.75;;;;;;;20.16;nan;99700.88;5049015;28;20113;-66
2022/09/15 01:01:06;;;;;;;10.00;4.00;;;;;;;20.15;nan;99718.00;5024666;28;20030;-65
2022/09/15 01:03:33;;;;;;;7.38;3.95;;;;;;;20.14;nan;99733.25;5046744;28;20050;-65
2022/09/15 01:06:04;;;;;;;6.78;3.75;;;;;;;20.11;nan;99707.16;5045718;28;20016;-66
2022/09/15 01:08:31;;;;;;;6.75;3.92;;;;;;;;;;5050199;28;20379;-66
2022/09/15 01:10:58;;;;;;;10.15;3.72;;;;;;;20.12;nan;99729.31;5057080;28;20073;-66
2022/09/15 01:13:23;;;;;;;6.70;3.88;;;;;;;20.12;nan;99723.97;5049458;28;20035;-66
2022/09/15 01:16:08;;;;;;;8.77;3.80;;;;;;;20.13;nan;99718.31;5047909;28;20535;-66
2022/09/15 01:19:18;;;;;;;8.65;4.00;;;;;;;20.11;nan;99715.16;5034267;28;20048;-65
2022/09/15 01:21:52;;;;;;;8.55;3.40;;;;;;;20.11;nan;99701.81;5024191;28;20044;-65
2022/09/15 01:24:32;;;;;;;6.00;3.25;;;;;;;20.10;nan;99720.81;5010362;28;20492;-66
2022/09/15 01:27:19;;;;;;;9.77;4.03;;;;;;;20.10;nan;99707.44;5007407;28;20034;-67
2022/09/15 01:29:53;;;;;;;5.05;3.80;;;;;;;20.08;nan;99683.69;5010807;28;20022;-67
2022/09/15 01:35:39;;;;;;;9.23;3.72;;;;;;;20.12;nan;99702.59;5007939;28;20061;-66
2022/09/15 01:38:31;;;;;;;10.75;4.43;;;;;;;20.11;nan;99693.78;5007679;28;20041;-67
2022/09/15 01:41:37;;;;;;;8.13;4.13;;;;;;;20.12;nan;99697.25;5007440;28;20025;-67
2022/09/15 01:44:13;;;;;;;8.60;3.70;;;;;;;20.10;nan;99758.22;5010703;28;20550;-67
2022/09/15 01:46:41;;;;;;;9.70;4.00;;;;;;;;;;4993139;28;20093;-66
2022/09/15 01:49:10;;;;;;;5.85;3.67;;;;;;;20.11;nan;99685.78;5007188;28;20068;-66
2022/09/15 01:51:38;;;;;;;7.10;3.75;;;;;;;20.11;nan;99691.13;5004790;28;20543;-67
2022/09/15 01:54:05;;;;;;;11.15;4.03;;;;;;;20.10;nan;99694.09;5008264;28;20741;-67
2022/09/15 01:56:31;;;;;;;8.50;3.90;;;;;;;20.15;nan;99684.03;4998392;28;20675;-67
2022/09/15 01:58:56;;;;;;;6.97;3.80;;;;;;;20.12;nan;99636.56;5044634;28;20037;-66
2022/09/15 02:01:31;;;;;;;10.27;3.83;;;;;;;20.17;nan;99700.56;5041589;28;20052;-66
2022/09/15 02:04:02;;;;;;;5.97;3.58;;;;;;;20.20;nan;99699.16;5045874;28;20029;-65
2022/09/15 02:06:36;;;;;;;9.50;3.58;;;;;;;20.15;nan;99750.88;5028060;28;20021;-66
2022/09/15 02:09:26;;;;;;;6.57;3.58;;;;;;;20.22;nan;99685.50;5041467;28;20026;-67
2022/09/15 02:11:57;;;;;;;6.82;3.85;;;;;;;20.25;nan;99671.50;5045441;28;20040;-67
2022/09/15 02:14:41;;;;;;;5.68;3.88;;;;;;;20.25;nan;99680.31;5039971;28;20044;-67
2022/09/15 02:17:14;;;;;;;7.72;3.80;;;;;;;20.24;nan;99652.03;5042335;28;20025;-66
2022/09/15 02:19:44;;;;;;;6.15;3.60;;;;;;;;;;5040975;28;20037;-66
2022/09/15 02:22:30;;;;;;;8.75;3.85;;;;;;;20.32;nan;99677.22;5041087;28;20483;-66
2022/09/15 02:25:04;;;;;;;7.28;3.53;;;;;;;20.34;nan;99672.34;5024594;28;20033;-66
2022/09/15 02:27:36;;;;;;;10.02;4.40;;;;;;;20.34;nan;99670.47;5043617;28;20523;-68
2022/09/15 02:30:08;;;;;;;5.80;3.97;;;;;;;20.32;nan;99682.56;5044568;28;20025;-67
2022/09/15 02:32:35;;;;;;;8.95;3.80;;;;;;;20.34;nan;99651.75;5041590;28;20044;-67
2022/09/15 02:35:05;;;;;;;5.80;3.30;;;;;;;;;;5040436;28;20036;-67
2022/09/15 02:37:34;;;;;;;6.72;3.92;;;;;;;20.34;nan;99673.13;5044312;28;20098;-68
2022/09/15 02:40:00;;;;;;;9.17;4.13;;;;;;;20.33;nan;99733.06;5044161;28;20021;-68
2022/09/15 02:42:28;;;;;;;6.20;3.67;;;;;;;20.35;nan;99685.41;5043320;28;20033;-68
2022/09/15 02:44:54;;;;;;;8.52;3.55;;;;;;;20.37;nan;99653.00;5035964;28;20029;-67
2022/09/15 02:47:20;;;;;;;7.00;3.90;;;;;;;20.32;nan;99667.31;5042058;28;20037;-67
2022/09/15 02:49:45;;;;;;;8.10;3.50;;;;;;;20.39;nan;99672.22;5041060;28;20421;-67
2022/09/15 02:52:11;;;;;;;9.52;3.30;;;;;;;20.40;nan;99676.47;5042067;28;20021;-68
2022/09/15 02:54:36;;;;;;;9.52;3.42;;;;;;;20.42;nan;99673.47;5043158;28;20026;-68
2022/09/15 02:57:02;;;;;;;7.97;3.47;;;;;;;20.44;nan;99650.69;5044585;28;20033;-67
2022/09/15 03:00:11;;;;;;;7.20;3.58;;;;;;;20.48;nan;99669.59;5042625;28;20013;-68
2022/09/15 03:02:12;;;;;;;11.02;3.67;;;;;;;;;;5040487;28;20091;-67
2022/09/15 03:04:38;;;;;;;4.90;2.97;;;;;;;20.52;nan;99673.19;5039744;28;20025;-67
2022/09/15 03:07:03;;;;;;;9.50;3.05;;;;;;;20.58;nan;99672.00;5028470;28;20033;-75
2022/09/15 03:09:29;;;;;;;6.18;3.13;;;;;;;20.59;nan;99677.06;5028397;28;20115;-75
2022/09/15 03:11:54;;;;;;;5.18;3.33;;;;;;;20.62;nan;99664.16;5041779;28;20013;-75
2022/09/15 03:14:19;;;;;;;10.10;3.90;;;;;;;20.65;nan;99658.19;5044694;28;20493;-75
2022/09/15 03:16:45;;;;;;;10.32;3.63;;;;;;;20.65;nan;99668.88;5044833;28;20032;-74
2022/09/15 03:19:11;;;;;;;6.20;3.03;;;;;;;20.68;nan;99724.44;5043847;28;20041;-75
2022/09/15 03:21:36;;;;;;;8.10;2.90;;;;;;;20.70;nan;99642.78;5043227;28;20025;-75
2022/09/15 03:24:02;;;;;;;8.35;3.17;;;;;;;20.64;nan;99605.75;5042260;28;20071;-75
2022/09/15 03:26:27;;;;;;;6.57;3.40;;;;;;;20.69;nan;99635.84;5043348;28;20028;-75
2022/09/15 03:28:53;;;;;;;7.32;3.17;;;;;;;20.70;nan;99633.97;5036664;28;20464;-75
2022/09/15 03:31:18;;;;;;;7.45;3.40;;;;;;;20.70;nan;99650.78;5026920;28;20025;-75
2022/09/15 03:33:44;;;;;;;6.63;3.50;;;;;;;20.68;nan;99663.69;5018657;28;20060;-75
2022/09/15 03:36:09;;;;;;;10.73;3.53;;;;;;;20.67;nan;99675.50;5047858;28;20036;-75
2022/09/15 03:38:35;;;;;;;5.45;2.90;;;;;;;20.68;nan;99636.94;5043286;28;20041;-75
2022/09/15 03:41:03;;;;;;;7.88;3.10;;;;;;;20.66;nan;99641.03;5043070;28;20036;-73
2022/09/15 03:43:30;;;;;;;6.15;3.10;;;;;;;20.67;nan;99621.22;5025290;28;20028;-74
2022/09/15 03:45:57;;;;;;;9.82;3.33;;;;;;;20.66;nan;99641.03;5040602;28;20036;-75
2022/09/15 03:48:23;;;;;;;6.30;3.00;;;;;;;20.64;nan;99664.63;5040023;28;20032;-74
2022/09/15 03:50:49;;;;;;;6.45;3.28;;;;;;;20.64;nan;99665.44;5022981;28;20025;-75
2022/09/15 03:53:15;;;;;;;8.18;3.10;;;;;;;20.58;nan;99647.94;5037707;28;20025;-75
2022/09/15 03:55:40;;;;;;;6.47;3.15;;;;;;;20.62;nan;99651.56;5031993;28;20033;-75
2022/09/15 03:58:06;;;;;;;5.15;3.10;;;;;;;20.61;nan;99633.94;5044303;28;20364;-75
2022/09/15 04:00:32;;;;;;;8.18;2.90;;;;;;;20.60;nan;99667.91;5044463;28;20076;-75
2022/09/15 04:02:58;;;;;;;7.53;2.75;;;;;;;20.56;nan;99666.16;5046507;28;20017;-75
2022/09/15 04:05:23;;;;;;;6.57;2.97;;;;;;;20.57;nan;99624.97;5029087;28;20029;-75
2022/09/15 04:07:49;;;;;;;8.35;3.22;;;;;;;20.52;nan;99596.44;5044668;28;20056;-76
2022/09/15 04:10:15;;;;;;;6.22;2.78;;;;;;;20.48;nan;99664.22;5047139;28;20036;-74
2022/09/15 04:12:40;;;;;;;7.97;3.30;;;;;;;20.41;nan;99688.75;5046612;28;20032;-75
2022/09/15 04:15:06;;;;;;;4.32;2.70;;;;;;;;;;5045763;28;20021;-75
2022/09/15 04:17:31;;;;;;;12.90;3.17;;;;;;;20.40;nan;99668.47;5044741;28;20029;-74
2022/09/15 04:19:57;;;;;;;10.88;4.22;;;;;;;20.37;nan;99693.13;5051620;28;20051;-74
2022/09/15 04:22:22;;;;;;;14.00;3.15;;;;;;;20.36;nan;99662.13;5027204;28;20013;-75
2022/09/15 04:24:48;;;;;;;9.48;3.13;;;;;;;20.28;nan;99661.00;5043410;28;20417;-74
2022/09/15 04:27:14;;;;;;;7.68;3.20;;;;;;;20.31;nan;99647.00;5043067;28;20029;-74
2022/09/15 04:29:40;;;;;;;8.50;3.10;;;;;;;;;;5050930;28;20652;-74
2022/09/15 04:32:06;;;;;;;9.90;2.95;;;;;;;20.27;nan;99672.00;5044973;28;20017;-74
2022/09/15 04:34:32;;;;;;;9.40;2.90;;;;;;;20.28;nan;99678.91;5041385;28;20036;-74
2022/09/15 04:36:57;;;;;;;10.10;3.38;;;;;;;20.27;nan;99672.00;5028435;28;20032;-66
2022/09/15 04:39:23;;;;;;;11.35;3.83;;;;;;;20.26;nan;99652.50;5047925;28;20031;-66
2022/09/15 04:41:48;;;;;;;8.43;3.33;;;;;;;20.24;nan;99669.94;5029412;28;20043;-66
2022/09/15 04:44:13;;;;;;;13.25;3.45;;;;;;;20.18;nan;99639.88;5047159;28;20116;-66
2022/09/15 04:46:39;;;;;;;5.97;3.40;;;;;;;20.21;nan;99666.00;5042319;28;20017;-67
2022/09/15 04:49:04;;;;;;;10.35;3.45;;;;;;;20.16;nan;99687.50;5046656;28;20397;-67
2022/09/15 04:51:30;;;;;;;9.50;3.60;;;;;;;;;;5041888;28;20021;-67
2022/09/15 04:53:56;;;;;;;12.82;4.20;;;;;;;20.18;nan;99659.41;5036412;28;20028;-75
2022/09/15 04:56:24;;;;;;;17.25;4.57;;;;;;;20.21;nan;99665.19;5047620;28;20040;-74
2022/09/15 04:58:55;;;;;;;16.38;5.10;;;;;;;20.20;nan;99653.72;5043243;28;20025;-75
2022/09/15 05:01:24;;;;;;;7.63;3.67;;;;;;;20.19;nan;99654.81;5028655;28;20016;-75
2022/09/15 05:03:49;;;;;;;13.02;3.65;;;;;;;20.18;nan;99723.56;5029029;28;20021;-75
2022/09/15 05:06:16;;;;;;;13.98;4.20;;;;;;;;;;5045169;28;20095;-76
2022/09/15 05:08:41;;;;;;;8.05;3.80;;;;;;;20.17;nan;99700.56;5044440;28;20086;-76
2022/09/15 05:11:09;;;;;;;6.88;3.35;;;;;;;20.15;nan;99643.94;5047292;28;20037;-75
2022/09/15 05:13:36;;;;;;;13.85;3.80;;;;;;;20.16;nan;99672.28;5044757;28;20456;-75
2022/09/15 05:16:10;;;;;;;5.82;3.25;;;;;;;20.16;nan;99672.28;5050090;28;20392;-74
2022/09/15 05:18:36;;;;;;;9.10;3.17;;;;;;;;;;5028180;28;20064;-75
2022/09/15 05:21:04;;;;;;;23.00;4.15;;;;;;;20.17;nan;99651.66;5032482;28;20061;-75
2022/09/15 05:23:30;;;;;;;14.50;4.50;;;;;;;20.14;nan;99633.56;5045538;28;20051;-75
2022/09/15 05:25:58;;;;;;;13.60;3.60;;;;;;;20.14;nan;99687.03;5070519;28;20016;-74
2022/09/15 05:28:24;;;;;;;8.25;4.15;;;;;;;20.13;nan;99683.56;5070104;28;20031;-75
2022/09/15 05:30:53;;;;;;;13.57;3.92;;;;;;;20.18;nan;99679.97;5057944;28;21187;-77
2022/09/15 05:33:21;;;;;;;11.27;3.85;;;;;;;20.19;nan;99692.25;5073351;28;20028;-76
2022/09/15 05:35:55;;;;;;;16.00;4.75;;;;;;;20.19;nan;99698.38;5068335;28;20032;-77
2022/09/15 05:38:20;;;;;;;15.93;6.70;;;;;;;20.17;nan;99694.44;5073419;28;20025;-74
2022/09/15 05:40:46;;;;;;;15.15;5.63;;;;;;;20.16;nan;99676.81;5070700;28;20065;-75
2022/09/15 05:43:12;;;;;;;14.77;4.53;;;;;;;20.18;nan;99690.66;5066687;28;20009;-75
2022/09/15 05:45:37;;;;;;;10.07;5.20;;;;;;;;;;5054970;28;20026;-75
2022/09/15 05:48:03;;;;;;;15.27;4.00;;;;;;;20.15;nan;99670.69;5070123;28;20064;-73
2022/09/15 05:50:29;;;;;;;9.88;3.97;;;;;;;20.19;nan;99693.03;5065058;28;20017;-77
2022/09/15 05:52:55;;;;;;;15.35;3.88;;;;;;;20.22;nan;99704.22;5064736;28;20025;-74
2022/09/15 05:55:20;;;;;;;15.27;3.78;;;;;;;;;;5068901;28;20031;-75
2022/09/15 05:57:46;;;;;;;18.70;4.22;;;;;;;20.23;nan;99724.50;5052582;28;20463;-75
2022/09/15 06:00:12;;;;;;;13.18;3.75;;;;;;;20.23;nan;99732.53;5076924;28;20029;-75
2022/09/15 06:02:37;;;;;;;18.38;4.95;;;;;;;20.21;nan;99713.31;5070332;28;20027;-75
2022/09/15 06:05:03;;;;;;;17.45;4.38;;;;;;;20.21;nan;99703.44;5067855;28;20021;-76
2022/09/15 06:07:28;;;;;;;18.83;4.55;;;;;;;20.25;nan;99741.81;5053417;28;20033;-75
2022/09/15 06:09:54;;;;;;;18.98;4.65;;;;;;;20.26;nan;99756.00;5051069;28;20052;-66
2022/09/15 06:12:20;;;;;;;9.90;4.20;;;;;;;20.27;nan;99744.19;5040751;28;20040;-67
2022/09/15 06:14:49;;;;;;;14.90;4.53;;;;;;;20.28;nan;99753.78;5029482;28;20024;-68
2022/09/15 06:17:14;;;;;;;;;;;;;;;;;;5042810;28;20407;-67
2022/09/15 06:19:39;;;;;;;22.00;4.22;;;;;;;20.32;nan;99734.16;5048431;28;20381;-67
2022/09/15 06:22:05;;;;;;;16.65;4.72;;;;;;;20.36;nan;99734.34;5027593;28;20572;-66
2022/09/15 06:24:30;;;;;;;15.85;4.85;;;;;;;20.39;nan;99733.72;5049036;28;20494;-75
2022/09/15 06:26:55;;;;;;;17.77;4.90;;;;;;;20.37;nan;99722.53;5042263;28;20025;-76
2022/09/15 06:29:21;;;;;;;14.25;5.00;;;;;;;20.46;nan;99784.09;5046103;28;20094;-75
2022/09/15 06:31:46;;;;;;;13.95;5.20;;;;;;;20.50;nan;99745.75;5040759;28;20021;-76
2022/09/15 06:34:11;;;;;;;15.32;5.75;;;;;;;20.58;nan;99746.91;5044127;28;20024;-75
2022/09/15 06:36:37;;;;;;;16.80;5.05;;;;;;;20.62;nan;99800.59;5055510;28;20028;-75
2022/09/15 06:39:03;;;;;;;11.32;4.07;;;;;;;20.74;nan;99755.31;5041500;28;20032;-75
2022/09/15 06:41:29;;;;;;;8.30;4.28;;;;;;;20.77;nan;99786.81;5042416;28;20036;-75
2022/09/15 06:43:54;;;;;;;13.85;4.15;;;;;;;20.92;nan;99745.47;5046589;28;20036;-74
2022/09/15 06:46:23;;;;;;;9.55;4.13;;;;;;;21.00;nan;99755.44;5048250;28;20040;-75
2022/09/15 06:48:50;;;;;;;9.05;3.85;;;;;;;21.07;nan;99704.09;5048281;28;20029;-74
2022/09/15 06:51:18;;;;;;;9.80;4.13;;;;;;;21.16;nan;99715.59;5041429;28;20025;-75
2022/09/15 06:53:44;;;;;;;13.10;3.65;;;;;;;21.25;nan;99776.09;5045315;28;20586;-66
2022/09/15 06:56:13;;;;;;;10.10;3.95;;;;;;;21.36;nan;99747.16;5028806;28;20104;-67
2022/09/15 06:58:39;;;;;;;8.93;3.67;;;;;;;;;;5042317;28;20510;-67
2022/09/15 07:01:08;;;;;;;9.27;3.80;;;;;;;21.61;nan;99763.59;5042377;28;20029;-67
2022/09/15 07:03:34;;;;;;;8.07;3.25;;;;;;;21.67;nan;99771.19;5045590;28;20044;-68
2022/09/15 07:06:00;;;;;;;8.15;3.80;;;;;;;21.80;nan;99766.75;5047073;28;20040;-68
2022/09/15 07:08:25;;;;;;;12.13;5.25;;;;;;;21.86;nan;99746.75;5028676;28;20063;-76
2022/09/15 07:10:51;;;;;;;11.65;6.05;;;;;;;21.93;nan;99769.59;5039791;28;20017;-75
2022/09/15 07:13:16;;;;;;;16.42;4.88;;;;;;;22.02;nan;99775.75;5044390;28;20033;-67
2022/09/15 07:15:51;;;;;;;20.58;3.55;;;;;;;22.08;nan;99782.53;5043591;28;20033;-76
2022/09/15 07:18:17;;;;;;;14.30;3.42;;;;;;;22.14;nan;99813.44;5044337;28;20045;-66
2022/09/15 07:20:42;;;;;;;7.28;3.05;;;;;;;22.25;nan;99774.50;5039603;28;20022;-74
2022/09/15 07:23:08;;;;;;;12.10;3.10;;;;;;;;;;5023246;28;20056;-75
2022/09/15 07:25:33;;;;;;;7.82;3.63;;;;;;;22.42;nan;99799.72;5043795;28;20033;-75
2022/09/15 07:28:00;;;;;;;10.05;3.38;;;;;;;22.46;nan;99798.75;5046231;28;20451;-75
2022/09/15 07:30:25;;;;;;;10.43;3.75;;;;;;;22.57;nan;99806.47;5041124;28;20025;-75
2022/09/15 07:32:51;;;;;;;6.95;3.47;;;;;;;22.69;nan;99777.84;5046923;28;20036;-76
2022/09/15 07:35:16;;;;;;;7.68;2.65;;;;;;;22.81;nan;99784.44;5050718;28;20020;-75
2022/09/15 07:37:43;;;;;;;9.65;3.38;;;;;;;22.93;nan;99820.22;5048424;28;20036;-75
2022/09/15 07:40:10;;;;;;;6.22;3.13;;;;;;;23.05;nan;99771.25;5047998;28;20079;-75
2022/09/15 07:42:36;;;;;;;12.93;4.45;;;;;;;23.20;nan;99790.59;5052841;28;20025;-75
2022/09/15 07:45:01;;;;;;;8.55;2.92;;;;;;;23.33;nan;99790.38;5052224;28;20040;-75
2022/09/15 07:47:27;;;;;;;12.73;4.22;;;;;;;23.45;nan;99808.50;5051801;28;20060;-74
2022/09/15 07:49:52;;;;;;;4.10;2.50;;;;;;;23.55;nan;99812.69;5031502;28;20380;-74
2022/09/15 07:52:18;;;;;;;9.93;2.80;;;;;;;23.65;nan;99769.28;5052607;28;20039;-74
2022/09/15 07:54:43;;;;;;;11.32;2.60;;;;;;;23.77;nan;99785.50;5032540;28;20025;-66
2022/09/15 07:57:08;;;;;;;9.10;3.17;;;;;;;23.85;nan;99818.03;5050951;28;20032;-67
2022/09/15 07:59:34;;;;;;;13.57;2.88;;;;;;;23.88;nan;99787.81;5049537;28;20026;-66
2022/09/15 08:01:59;;;;;;;8.70;2.97;;;;;;;23.91;nan;99795.22;5045959;28;20368;-67
2022/09/15 08:04:25;;;;;;;8.82;2.97;;;;;;;23.95;nan;99810.38;5030849;28;20029;-67
2022/09/15 08:06:51;;;;;;;7.93;2.70;;;;;;;23.94;nan;99840.28;5053374;28;20048;-74
2022/09/15 08:09:17;;;;;;;7.45;3.15;;;;;;;24.01;nan;99824.41;5053461;28;20096;-74
2022/09/15 08:11:42;;;;;;;10.57;3.55;;;;;;;;;;5046720;28;20104;-75
2022/09/15 08:14:08;;;;;;;10.15;3.70;;;;;;;24.15;nan;99814.16;5047219;28;20104;-74
2022/09/15 08:16:34;;;;;;;7.43;2.53;;;;;;;24.18;nan;99855.75;5047251;28;20028;-74
2022/09/15 08:18:59;;;;;;;5.75;2.20;;;;;;;24.22;nan;99802.88;5034514;28;20083;-75
2022/09/15 08:21:26;;;;;;;6.25;2.55;;;;;;;24.28;nan;99852.69;5034917;28;20052;-76
2022/09/15 08:23:57;;;;;;;10.23;2.42;;;;;;;24.31;nan;99860.09;5048671;28;20028;-75
2022/09/15 08:26:24;;;;;;;9.32;2.50;;;;;;;24.35;nan;99787.53;5050907;28;20036;-75
2022/09/15 08:28:52;;;;;;;5.88;2.30;;;;;;;24.36;nan;99824.88;5052435;28;20447;-67
2022/09/15 08:31:17;;;;;;;7.88;2.35;;;;;;;24.38;nan;99832.63;5052914;28;20475;-67
2022/09/15 08:33:48;;;;;;;9.07;2.40;;;;;;;24.44;nan;99814.38;5042483;28;20033;-67
2022/09/15 08:36:14;;;;;;;11.07;2.58;;;;;;;24.41;nan;99805.84;5036294;28;20394;-68
2022/09/15 08:38:40;;;;;;;14.73;2.78;;;;;;;24.41;nan;99821.97;5050498;28;20458;-74
2022/09/15 08:41:18;;;;;;;8.30;2.65;;;;;;;;;;5055485;28;20033;-75
2022/09/15 08:43:56;;;;;;;12.30;2.75;;;;;;;24.47;nan;99873.75;5033571;28;20116;-76
2022/09/15 08:46:28;;;;;;;9.43;2.70;;;;;;;24.53;nan;99807.81;5048717;28;20029;-74
2022/09/15 08:49:02;;;;;;;8.90;3.10;;;;;;;24.55;nan;99862.09;5033903;28;20116;-75
2022/09/15 08:51:35;;;;;;;9.65;2.40;;;;;;;24.62;nan;99830.03;5048703;28;20033;-74
2022/09/15 08:54:09;;;;;;;8.27;2.80;;;;;;;24.63;nan;99823.53;5055768;28;20037;-74
2022/09/15 08:56:35;;;;;;;5.18;2.50;;;;;;;24.71;nan;99807.63;5051247;28;20031;-68
2022/09/15 08:59:01;;;;;;;8.15;2.15;;;;;;;24.71;nan;99821.06;5052741;28;20029;-67
2022/09/15 09:01:39;;;;;;;11.63;2.58;;;;;;;24.78;nan;99872.47;5049029;28;20103;-67
2022/09/15 09:04:23;;;;;;;12.07;2.70;;;;;;;24.83;nan;99821.91;5051931;28;20580;-73
2022/09/15 09:07:00;;;;;;;14.90;2.47;;;;;;;24.92;nan;99834.47;5034300;28;20040;-74
2022/09/15 09:09:48;;;;;;;5.78;2.30;;;;;;;24.97;nan;99839.63;5051318;28;20033;-74
2022/09/15 09:12:19;;;;;;;8.95;2.63;;;;;;;25.01;nan;99845.94;5032097;28;20025;-74
2022/09/15 09:15:04;;;;;;;8.65;2.40;;;;;;;25.05;nan;99853.00;5051319;28;20086;-74
2022/09/15 09:17:52;;;;;;;10.32;2.53;;;;;;;25.05;nan;99873.78;5032248;28;20032;-68
2022/09/15 09:20:28;;;;;;;9.60;2.42;;;;;;;25.17;nan;99863.03;5047771;28;20497;-69
2022/09/15 09:22:54;;;;;;;13.20;2.17;;;;;;;25.21;nan;99810.06;5052431;28;20048;-74
2022/09/15 09:25:20;;;;;;;7.18;2.50;;;;;;;25.29;nan;99837.22;5047581;28;20387;-73
2022/09/15 09:27:47;;;;;;;7.05;2.25;;;;;;;25.37;nan;99844.41;5051310;28;20493;-74
2022/09/15 09:30:14;;;;;;;8.50;2.30;;;;;;;25.49;nan;99833.59;5050870;28;20067;-74
2022/09/15 09:32:50;;;;;;;5.90;1.80;;;;;;;25.55;nan;99834.94;5028859;28;20029;-74
2022/09/15 09:35:18;;;;;;;12.65;2.22;;;;;;;25.67;nan;99831.44;5046348;28;20086;-68
2022/09/15 09:37:43;;;;;;;9.35;2.10;;;;;;;25.74;nan;99820.06;5031284;28;20028;-65
2022/09/15 09:40:15;;;;;;;6.85;1.90;;;;;;;25.80;nan;99816.78;5045781;28;20047;-68
2022/09/15 09:42:42;;;;;;;14.30;2.13;;;;;;;25.83;nan;99816.09;5059935;28;20443;-68
2022/09/15 09:45:12;;;;;;;6.80;2.38;;;;;;;25.86;nan;99806.59;5047922;28;20578;-68
2022/09/15 09:47:39;;;;;;;7.65;2.30;;;;;;;25.87;nan;99776.56;5049581;28;20039;-67
2022/09/15 09:50:34;;;;;;;5.10;2.03;;;;;;;25.88;nan;99799.72;5049498;28;20029;-67
2022/09/15 09:53:18;;;;;;;6.97;1.92;;;;;;;25.87;nan;99844.00;5051900;28;20430;-67
2022/09/15 09:55:44;;;;;;;9.27;1.77;;;;;;;25.92;nan;99785.56;5048546;28;20537;-67
2022/09/15 09:58:18;;;;;;;6.72;1.83;;;;;;;25.93;nan;99782.53;5029783;28;20482;-67
2022/09/15 10:00:44;;;;;;;5.60;1.85;;;;;;;25.91;nan;99776.69;5050156;28;20095;-73
2022/09/15 10:03:19;;;;;;;8.23;1.60;;;;;;;25.94;nan;99786.78;5046755;28;20356;-74
2022/09/15 10:06:13;;;;;;;8.23;1.50;;;;;;;25.95;nan;99793.72;5046292;28;20067;-75
2022/09/15 10:08:51;;;;;;;6.60;1.98;;;;;;;25.99;nan;99793.84;5049538;28;20124;-74
2022/09/15 10:11:17;;;;;;;7.53;1.80;;;;;;;26.00;nan;99798.09;5048678;28;20017;-75
2022/09/15 10:13:53;;;;;;;13.85;1.70;;;;;;;25.99;nan;99778.44;5023947;28;20029;-74
2022/09/15 10:16:21;;;;;;;13.63;2.15;;;;;;;26.00;nan;99807.00;5032788;28;20024;-75
2022/09/15 10:18:49;;;;;;;8.60;1.88;;;;;;;26.07;nan;99782.91;5049367;28;20072;-75
2022/09/15 10:21:21;;;;;;;9.75;1.75;;;;;;;26.10;nan;99766.03;5050082;28;20028;-76
2022/09/15 10:23:46;;;;;;;10.98;2.17;;;;;;;26.14;nan;99792.31;5050462;28;20017;-73
2022/09/15 10:26:14;;;;;;;7.88;1.83;;;;;;;26.17;nan;99760.03;5033308;28;20060;-74
2022/09/15 10:28:41;;;;;;;7.78;1.70;;;;;;;26.20;nan;99735.06;5049202;28;20056;-72
2022/09/15 10:31:12;;;;;;;4.72;1.40;;;;;;;26.21;nan;99744.72;5046246;28;20395;-74
2022/09/15 10:33:44;;;;;;;6.20;2.60;;;;;;;26.25;nan;99710.50;5047242;28;20025;-74
2022/09/15 10:36:18;;;;;;;7.68;2.13;;;;;;;26.33;nan;99743.84;5046233;28;20059;-74
2022/09/15 10:38:59;;;;;;;4.03;1.73;;;;;;;26.37;nan;99742.03;5045778;28;20116;-73
2022/09/15 10:41:29;;;;;;;7.95;1.60;;;;;;;26.41;nan;99799.63;5049131;28;20039;-67
2022/09/15 10:44:16;;;;;;;7.38;1.60;;;;;;;26.49;nan;99727.69;5057714;28;20017;-63
2022/09/15 10:46:57;;;;;;;9.50;1.52;;;;;;;26.54;nan;99715.88;5041403;28;20021;-66
2022/09/15 10:49:30;;;;;;;8.15;1.60;;;;;;;26.59;nan;99702.88;5062038;28;20043;-75
2022/09/15 10:52:50;;;;;;;8.93;1.75;;;;;;;26.61;nan;99722.22;5054008;28;20051;-75
2022/09/15 10:55:48;;;;;;;12.23;2.85;;;;;;;26.62;nan;99707.56;4986736;28;20553;-75
2022/09/15 10:58:13;;;;;;;12.85;1.70;;;;;;;26.62;nan;99712.97;4984084;28;20053;-74
2022/09/15 11:01:29;;;;;;;8.85;2.53;;;;;;;26.62;nan;99699.47;4999420;28;20031;-75
2022/09/15 11:04:22;;;;;;;9.23;2.75;;;;;;;26.65;nan;99709.59;4952231;29;20111;-74
2022/09/15 11:07:09;;;;;;;5.13;2.38;;;;;;;26.67;nan;99710.03;4933620;29;20577;-73
2022/09/15 11:09:42;;;;;;;7.90;2.00;;;;;;;26.70;nan;99719.34;4949479;29;20054;-74
2022/09/15 11:12:15;;;;;;;6.80;1.90;;;;;;;26.71;nan;99713.56;4952474;29;20028;-74
2022/09/15 11:14:50;;;;;;;7.00;2.40;;;;;;;26.73;nan;99684.28;4951029;29;20628;-75
2022/09/15 11:17:34;;;;;;;13.82;3.10;;;;;;;26.72;nan;99771.06;4947233;29;20055;-74
2022/09/15 11:20:38;;;;;;;5.90;1.60;;;;;;;26.73;nan;99716.72;4947809;29;20113;-74
2022/09/15 11:23:20;;;;;;;13.60;1.80;;;;;;;26.72;nan;99657.63;4949658;29;20107;-75
2022/09/15 11:25:56;;;;;;;8.18;1.90;;;;;;;26.72;nan;99684.63;4951032;29;20020;-75
2022/09/15 11:28:27;;;;;;;6.00;1.60;;;;;;;26.76;nan;99717.91;4962989;28;20052;-74
2022/09/15 11:31:02;;;;;;;4.40;2.00;;;;;;;26.75;nan;99759.59;4997380;28;20065;-67
2022/09/15 11:33:36;;;;;;;5.03;1.98;;;;;;;26.68;nan;99687.28;4983825;28;20031;-75
2022/09/15 11:36:08;;;;;;;5.97;1.60;;;;;;;26.71;nan;99696.59;5002176;28;20138;-74
2022/09/15 11:38:47;;;;;;;10.70;1.92;;;;;;;26.69;nan;99685.34;5043400;28;20097;-74
2022/09/15 11:41:15;;;;;;;;;;;;;;;26.68;nan;99698.06;5048946;28;20539;-74
2022/09/15 11:43:58;;;;;;;10.63;1.80;;;;;;;26.67;nan;99683.03;5042776;28;20264;-66
2022/09/15 11:46:51;;;;;;;12.07;2.25;;;;;;;26.70;nan;99700.44;5030004;28;20048;-67
2022/09/15 11:49:21;;;;;;;7.72;1.83;;;;;;;26.72;nan;99649.53;5045734;28;20091;-67
2022/09/15 11:52:17;;;;;;;14.63;2.30;;;;;;;26.75;nan;99696.69;5028930;28;20032;-66
2022/09/15 11:54:55;;;;;;;12.57;2.20;;;;;;;26.74;nan;99693.19;5029971;28;20024;-75
2022/09/15 11:57:26;;;;;;;10.57;2.23;;;;;;;26.75;nan;99642.66;5032657;28;20030;-76
2022/09/15 11:59:58;;;;;;;10.27;1.63;;;;;;;26.72;nan;99707.06;5039478;28;20041;-75
2022/09/15 12:02:42;;;;;;;14.02;2.50;;;;;;;26.71;nan;99658.78;5028046;28;20052;-75
2022/09/15 12:05:14;;;;;;;21.60;2.03;;;;;;;26.63;nan;99681.38;5037071;28;20061;-74
2022/09/15 12:08:04;;;;;;;11.00;1.90;;;;;;;26.67;nan;99671.41;5030139;28;20119;-75
2022/09/15 12:10:40;;;;;;;13.85;3.05;;;;;;;26.65;nan;99669.06;5024472;28;20375;-75
2022/09/15 12:13:11;;;;;;;12.55;1.98;;;;;;;26.68;nan;99662.19;5029536;28;20176;-76
2022/09/15 12:15:37;;;;;;;8.82;1.90;;;;;;;26.67;nan;99633.59;5030068;28;20395;-75